sensor_id;sensor_type;location;lat;lon;timestamp;pressure;altitude;pressure_sealevel;temperature;humidity
56632;BME280;42503;39.928;-75.152;2023-05-29T00:05:40;101482.47;;;25.93;36.71
56632;BME280;42503;39.928;-75.152;2023-05-29T00:15:41;101473.56;;;25.91;36.35
56632;BME280;42503;39.928;-75.152;2023-05-29T00:25:45;101481.66;;;25.92;36.83
56632;BME280;42503;39.928;-75.152;2023-05-29T00:35:47;101479.09;;;25.96;36.74
56632;BME280;42503;39.928;-75.152;2023-05-29T00:45:51;101452.06;;;25.62;36.02
56632;BME280;42503;39.928;-75.152;2023-05-29T00:55:53;101498.63;;;25.82;36.87
56632;BME280;42503;39.928;-75.152;2023-05-29T01:05:54;101524.09;;;25.85;36.60
56632;BME280;42503;39.928;-75.152;2023-05-29T01:16:54;101526.06;;;25.85;36.64
56632;BME280;42503;39.928;-75.152;2023-05-29T01:26:43;101520.09;;;25.92;36.53
56632;BME280;42503;39.928;-75.152;2023-05-29T01:36:46;101530.41;;;25.96;36.41
56632;BME280;42503;39.928;-75.152;2023-05-29T01:46:54;101537.38;;;25.99;35.70
56632;BME280;42503;39.928;-75.152;2023-05-29T01:56:56;101542.16;;;25.98;36.55
56632;BME280;42503;39.928;-75.152;2023-05-29T02:06:57;101525.09;;;25.47;34.05
56632;BME280;42503;39.928;-75.152;2023-05-29T02:16:59;101555.97;;;25.42;34.62
56632;BME280;42503;39.928;-75.152;2023-05-29T02:27:04;101546.13;;;25.20;34.54
56632;BME280;42503;39.928;-75.152;2023-05-29T02:37:06;101538.97;;;25.04;34.83
56632;BME280;42503;39.928;-75.152;2023-05-29T02:47:07;101525.13;;;24.89;34.52
56632;BME280;42503;39.928;-75.152;2023-05-29T02:57:09;101469.16;;;24.54;35.22
56632;BME280;42503;39.928;-75.152;2023-05-29T03:07:10;101508.41;;;24.78;35.04
56632;BME280;42503;39.928;-75.152;2023-05-29T03:17:13;101496.81;;;24.61;34.42
56632;BME280;42503;39.928;-75.152;2023-05-29T03:27:14;101467.91;;;24.31;34.85
56632;BME280;42503;39.928;-75.152;2023-05-29T03:37:16;101488.53;;;24.46;34.86
56632;BME280;42503;39.928;-75.152;2023-05-29T03:47:20;101472.63;;;24.41;34.83
56632;BME280;42503;39.928;-75.152;2023-05-29T03:57:22;101470.16;;;24.34;34.82
56632;BME280;42503;39.928;-75.152;2023-05-29T04:07:23;101463.50;;;24.25;34.57
56632;BME280;42503;39.928;-75.152;2023-05-29T04:17:25;101466.59;;;24.24;34.49
56632;BME280;42503;39.928;-75.152;2023-05-29T04:27:27;101468.31;;;24.20;34.79
56632;BME280;42503;39.928;-75.152;2023-05-29T04:37:32;101444.66;;;24.02;34.95
56632;BME280;42503;39.928;-75.152;2023-05-29T04:47:38;101447.94;;;24.09;34.75
56632;BME280;42503;39.928;-75.152;2023-05-29T04:57:45;101437.63;;;24.04;34.47
56632;BME280;42503;39.928;-75.152;2023-05-29T05:07:47;101429.88;;;23.96;34.61
56632;BME280;42503;39.928;-75.152;2023-05-29T05:17:48;101414.81;;;23.92;34.79
56632;BME280;42503;39.928;-75.152;2023-05-29T05:27:50;101402.81;;;23.87;34.93
56632;BME280;42503;39.928;-75.152;2023-05-29T05:37:54;101398.09;;;23.87;34.46
56632;BME280;42503;39.928;-75.152;2023-05-29T05:48:01;101393.31;;;23.88;34.56
56632;BME280;42503;39.928;-75.152;2023-05-29T05:58:03;101358.50;;;23.70;34.33
56632;BME280;42503;39.928;-75.152;2023-05-29T06:08:07;101238.03;;;22.88;34.45
56632;BME280;42503;39.928;-75.152;2023-05-29T06:18:09;101356.50;;;23.75;34.43
56632;BME280;42503;39.928;-75.152;2023-05-29T06:28:13;101361.56;;;23.73;34.70
56632;BME280;42503;39.928;-75.152;2023-05-29T06:38:15;101356.47;;;23.80;34.96
56632;BME280;42503;39.928;-75.152;2023-05-29T06:48:16;101364.78;;;23.91;35.45
56632;BME280;42503;39.928;-75.152;2023-05-29T06:58:20;101357.44;;;24.00;35.18
56632;BME280;42503;39.928;-75.152;2023-05-29T07:08:22;101351.78;;;24.10;35.58
56632;BME280;42503;39.928;-75.152;2023-05-29T07:18:24;101308.31;;;23.94;35.87
56632;BME280;42503;39.928;-75.152;2023-05-29T07:28:25;101328.72;;;24.23;35.66
56632;BME280;42503;39.928;-75.152;2023-05-29T07:38:26;101332.25;;;24.34;35.75
56632;BME280;42503;39.928;-75.152;2023-05-29T07:48:28;101329.13;;;24.41;35.80
56632;BME280;42503;39.928;-75.152;2023-05-29T07:58:29;101327.09;;;24.46;35.93
56632;BME280;42503;39.928;-75.152;2023-05-29T08:08:30;101268.63;;;24.21;36.00
56632;BME280;42503;39.928;-75.152;2023-05-29T08:18:32;101319.97;;;24.59;35.88
56632;BME280;42503;39.928;-75.152;2023-05-29T08:28:34;101314.31;;;24.64;35.85
56632;BME280;42503;39.928;-75.152;2023-05-29T08:38:39;101319.03;;;24.69;36.00
56632;BME280;42503;39.928;-75.152;2023-05-29T08:48:43;101308.66;;;24.69;35.90
56632;BME280;42503;39.928;-75.152;2023-05-29T08:58:49;101278.06;;;24.54;36.07
56632;BME280;42503;39.928;-75.152;2023-05-29T09:08:54;101321.44;;;24.80;36.03
56632;BME280;42503;39.928;-75.152;2023-05-29T09:19:06;101323.41;;;24.80;36.11
56632;BME280;42503;39.928;-75.152;2023-05-29T09:29:10;101325.81;;;24.87;36.25
56632;BME280;42503;39.928;-75.152;2023-05-29T09:39:13;101331.66;;;24.90;36.19
56632;BME280;42503;39.928;-75.152;2023-05-29T09:49:15;101303.63;;;24.71;36.42
56632;BME280;42503;39.928;-75.152;2023-05-29T09:59:17;101220.25;;;24.20;36.63
56632;BME280;42503;39.928;-75.152;2023-05-29T10:09:19;101346.97;;;24.98;36.55
56632;BME280;42503;39.928;-75.152;2023-05-29T10:19:27;101339.47;;;24.93;36.48
56632;BME280;42503;39.928;-75.152;2023-05-29T10:29:43;101357.03;;;24.99;36.66
56632;BME280;42503;39.928;-75.152;2023-05-29T10:39:49;101348.56;;;25.04;36.23
56632;BME280;42503;39.928;-75.152;2023-05-29T10:49:51;101352.19;;;25.04;36.36
56632;BME280;42503;39.928;-75.152;2023-05-29T11:00:06;101353.94;;;25.00;36.25
56632;BME280;42503;39.928;-75.152;2023-05-29T11:10:15;101344.69;;;25.00;36.25
56632;BME280;42503;39.928;-75.152;2023-05-29T11:20:50;101364.78;;;25.07;38.01
56632;BME280;42503;39.928;-75.152;2023-05-29T11:30:55;101367.78;;;25.16;36.52
56632;BME280;42503;39.928;-75.152;2023-05-29T11:40:57;101381.69;;;24.97;38.20
56632;BME280;42503;39.928;-75.152;2023-05-29T11:51:03;101384.03;;;24.90;39.32
56632;BME280;42503;39.928;-75.152;2023-05-29T12:01:05;101371.16;;;24.89;40.27
56632;BME280;42503;39.928;-75.152;2023-05-29T12:11:07;101382.16;;;25.04;39.47
56632;BME280;42503;39.928;-75.152;2023-05-29T12:21:08;101363.47;;;24.99;38.77
56632;BME280;42503;39.928;-75.152;2023-05-29T12:31:09;101391.22;;;25.20;38.43
56632;BME280;42503;39.928;-75.152;2023-05-29T12:41:22;101393.50;;;25.18;38.22
56632;BME280;42503;39.928;-75.152;2023-05-29T12:51:27;101410.50;;;25.26;38.35
56632;BME280;42503;39.928;-75.152;2023-05-29T13:01:34;101419.34;;;25.33;38.24
56632;BME280;42503;39.928;-75.152;2023-05-29T13:11:36;101433.84;;;25.41;38.33
56632;BME280;42503;39.928;-75.152;2023-05-29T13:21:37;101418.91;;;25.26;38.10
56632;BME280;42503;39.928;-75.152;2023-05-29T13:31:39;101428.72;;;25.48;38.09
56632;BME280;42503;39.928;-75.152;2023-05-29T13:41:40;101416.72;;;25.42;38.32
56632;BME280;42503;39.928;-75.152;2023-05-29T13:51:45;101417.44;;;25.53;38.37
56632;BME280;42503;39.928;-75.152;2023-05-29T14:01:47;101422.06;;;25.63;38.09
56632;BME280;42503;39.928;-75.152;2023-05-29T14:11:49;101422.91;;;25.63;38.19
56632;BME280;42503;39.928;-75.152;2023-05-29T14:21:51;101367.25;;;25.32;37.89
56632;BME280;42503;39.928;-75.152;2023-05-29T14:31:52;101400.16;;;25.46;38.23
56632;BME280;42503;39.928;-75.152;2023-05-29T14:41:56;101438.81;;;25.68;38.22
56632;BME280;42503;39.928;-75.152;2023-05-29T14:52:01;101343.75;;;25.09;38.33
56632;BME280;42503;39.928;-75.152;2023-05-29T15:02:05;101443.88;;;25.66;38.13
56632;BME280;42503;39.928;-75.152;2023-05-29T15:12:07;101449.38;;;25.76;38.38
56632;BME280;42503;39.928;-75.152;2023-05-29T15:22:08;101401.81;;;25.47;38.24
56632;BME280;42503;39.928;-75.152;2023-05-29T15:32:10;101450.22;;;25.76;38.38
56632;BME280;42503;39.928;-75.152;2023-05-29T15:42:11;101440.06;;;25.80;37.99
56632;BME280;42503;39.928;-75.152;2023-05-29T15:52:15;101449.53;;;25.84;37.85
56632;BME280;42503;39.928;-75.152;2023-05-29T16:02:19;101447.56;;;25.85;38.22
56632;BME280;42503;39.928;-75.152;2023-05-29T16:12:20;101450.06;;;25.87;38.18
56632;BME280;42503;39.928;-75.152;2023-05-29T16:22:25;101452.56;;;25.88;37.80
56632;BME280;42503;39.928;-75.152;2023-05-29T16:32:27;101459.00;;;25.89;38.04
56632;BME280;42503;39.928;-75.152;2023-05-29T16:42:28;101463.00;;;25.82;38.09
56632;BME280;42503;39.928;-75.152;2023-05-29T16:52:30;101446.25;;;25.77;37.43
56632;BME280;42503;39.928;-75.152;2023-05-29T17:02:34;101435.31;;;25.57;37.30
56632;BME280;42503;39.928;-75.152;2023-05-29T17:12:35;101444.84;;;25.56;37.43
56632;BME280;42503;39.928;-75.152;2023-05-29T17:22:39;101441.94;;;25.42;37.28
56632;BME280;42503;39.928;-75.152;2023-05-29T17:32:43;101398.94;;;25.09;36.91
56632;BME280;42503;39.928;-75.152;2023-05-29T17:42:45;101438.00;;;25.19;37.17
56632;BME280;42503;39.928;-75.152;2023-05-29T17:52:48;101458.69;;;25.23;37.03
56632;BME280;42503;39.928;-75.152;2023-05-29T18:02:50;101415.78;;;25.04;37.51
56632;BME280;42503;39.928;-75.152;2023-05-29T18:12:52;101410.13;;;25.09;37.61
56632;BME280;42503;39.928;-75.152;2023-05-29T18:22:54;101449.22;;;25.43;37.89
56632;BME280;42503;39.928;-75.152;2023-05-29T18:32:57;101451.06;;;25.53;38.03
56632;BME280;42503;39.928;-75.152;2023-05-29T18:43:04;101459.47;;;25.53;38.17
56632;BME280;42503;39.928;-75.152;2023-05-29T18:53:06;101482.91;;;25.62;38.04
56632;BME280;42503;39.928;-75.152;2023-05-29T19:03:08;101505.69;;;25.74;38.27
56632;BME280;42503;39.928;-75.152;2023-05-29T19:13:10;101514.06;;;25.79;37.93
56632;BME280;42503;39.928;-75.152;2023-05-29T19:23:11;101525.84;;;25.81;38.32
56632;BME280;42503;39.928;-75.152;2023-05-29T19:33:16;101522.00;;;25.72;38.14
56632;BME280;42503;39.928;-75.152;2023-05-29T19:43:17;101534.69;;;25.89;38.13
56632;BME280;42503;39.928;-75.152;2023-05-29T19:53:23;101533.28;;;25.91;38.19
56632;BME280;42503;39.928;-75.152;2023-05-29T20:03:24;101551.47;;;25.94;38.05
56632;BME280;42503;39.928;-75.152;2023-05-29T20:13:26;101562.38;;;25.95;37.88
56632;BME280;42503;39.928;-75.152;2023-05-29T20:23:28;101566.03;;;25.96;37.75
56632;BME280;42503;39.928;-75.152;2023-05-29T20:33:29;101528.09;;;25.79;37.76
56632;BME280;42503;39.928;-75.152;2023-05-29T20:43:30;101563.72;;;25.98;38.16
56632;BME280;42503;39.928;-75.152;2023-05-29T20:53:36;101566.84;;;25.96;37.83
56632;BME280;42503;39.928;-75.152;2023-05-29T21:03:37;101568.22;;;25.99;37.73
56632;BME280;42503;39.928;-75.152;2023-05-29T21:13:39;101573.84;;;25.99;37.69
56632;BME280;42503;39.928;-75.152;2023-05-29T21:23:40;101570.41;;;26.02;37.52
56632;BME280;42503;39.928;-75.152;2023-05-29T21:33:47;101563.16;;;26.01;37.42
56632;BME280;42503;39.928;-75.152;2023-05-29T21:43:49;101563.16;;;26.01;37.87
56632;BME280;42503;39.928;-75.152;2023-05-29T21:53:50;101575.50;;;26.00;37.61
56632;BME280;42503;39.928;-75.152;2023-05-29T22:03:52;101558.91;;;25.79;37.81
56632;BME280;42503;39.928;-75.152;2023-05-29T22:13:56;101606.88;;;26.02;37.91
56632;BME280;42503;39.928;-75.152;2023-05-29T22:24:00;101609.16;;;26.00;38.10
56632;BME280;42503;39.928;-75.152;2023-05-29T22:34:02;101642.75;;;26.05;38.60
56632;BME280;42503;39.928;-75.152;2023-05-29T22:44:03;101644.41;;;26.06;38.63
56632;BME280;42503;39.928;-75.152;2023-05-29T22:54:05;101672.44;;;26.06;38.77
56632;BME280;42503;39.928;-75.152;2023-05-29T23:04:07;101645.81;;;25.84;39.03
56632;BME280;42503;39.928;-75.152;2023-05-29T23:14:11;101690.41;;;26.05;38.77
56632;BME280;42503;39.928;-75.152;2023-05-29T23:24:12;101662.91;;;25.83;38.90
56632;BME280;42503;39.928;-75.152;2023-05-29T23:34:14;101684.50;;;25.82;38.63
56632;BME280;42503;39.928;-75.152;2023-05-29T23:44:18;101724.06;;;26.05;38.63
56632;BME280;42503;39.928;-75.152;2023-05-29T23:54:20;101667.50;;;25.69;38.46
